sensor_id;sensor_type;location;lat;lon;timestamp;pressure;altitude;pressure_sealevel;temperature;humidity
23223;BME280;11780;13.904;100.620;2024-01-25T00:01:59;101677.44;;;28.92;52.56
23223;BME280;11780;13.904;100.620;2024-01-25T00:04:29;101681.31;;;28.91;52.68
23223;BME280;11780;13.904;100.620;2024-01-25T00:06:59;101687.09;;;28.90;52.85
23223;BME280;11780;13.904;100.620;2024-01-25T00:09:30;101697.00;;;28.91;52.90
23223;BME280;11780;13.904;100.620;2024-01-25T00:12:00;101707.47;;;28.89;52.92
23223;BME280;11780;13.904;100.620;2024-01-25T00:14:31;101705.56;;;28.89;52.68
23223;BME280;11780;13.904;100.620;2024-01-25T00:17:01;101710.22;;;28.89;52.84
23223;BME280;11780;13.904;100.620;2024-01-25T00:19:34;101709.97;;;28.85;52.76
23223;BME280;11780;13.904;100.620;2024-01-25T00:22:05;101708.31;;;28.89;53.02
23223;BME280;11780;13.904;100.620;2024-01-25T00:24:35;101708.00;;;28.91;52.64
23223;BME280;11780;13.904;100.620;2024-01-25T00:27:06;101711.88;;;28.90;52.65
23223;BME280;11780;13.904;100.620;2024-01-25T00:29:37;101720.13;;;28.90;52.67
23223;BME280;11780;13.904;100.620;2024-01-25T00:32:07;101730.03;;;28.91;52.59
23223;BME280;11780;13.904;100.620;2024-01-25T00:34:38;101727.88;;;28.88;52.57
23223;BME280;11780;13.904;100.620;2024-01-25T00:37:09;101731.44;;;28.88;52.74
23223;BME280;11780;13.904;100.620;2024-01-25T00:39:39;101739.41;;;28.90;52.62
23223;BME280;11780;13.904;100.620;2024-01-25T00:42:12;101742.75;;;28.86;52.60
23223;BME280;11780;13.904;100.620;2024-01-25T00:44:43;101746.63;;;28.85;53.03
23223;BME280;11780;13.904;100.620;2024-01-25T00:47:14;101751.28;;;28.90;52.48
23223;BME280;11780;13.904;100.620;2024-01-25T00:49:44;101758.19;;;28.88;52.44
23223;BME280;11780;13.904;100.620;2024-01-25T00:52:15;101755.94;;;28.90;52.62
23223;BME280;11780;13.904;100.620;2024-01-25T00:54:46;101764.50;;;28.88;52.45
23223;BME280;11780;13.904;100.620;2024-01-25T00:57:18;101772.47;;;28.90;52.53
23223;BME280;11780;13.904;100.620;2024-01-25T00:59:48;101772.75;;;28.88;52.62
23223;BME280;11780;13.904;100.620;2024-01-25T01:02:22;101769.19;;;28.88;52.57
23223;BME280;11780;13.904;100.620;2024-01-25T01:04:53;101778.56;;;28.86;52.48
23223;BME280;11780;13.904;100.620;2024-01-25T01:07:23;101783.22;;;28.86;52.51
23223;BME280;11780;13.904;100.620;2024-01-25T01:09:54;101782.97;;;28.88;52.35
23223;BME280;11780;13.904;100.620;2024-01-25T01:12:24;101782.97;;;28.88;52.41
23223;BME280;11780;13.904;100.620;2024-01-25T01:14:55;101793.72;;;28.84;52.45
23223;BME280;11780;13.904;100.620;2024-01-25T01:17:25;101792.84;;;28.89;52.23
23223;BME280;11780;13.904;100.620;2024-01-25T01:19:56;101803.06;;;28.88;52.33
23223;BME280;11780;13.904;100.620;2024-01-25T01:22:27;101814.88;;;28.89;52.24
23223;BME280;11780;13.904;100.620;2024-01-25T01:24:58;101819.56;;;28.93;52.35
23223;BME280;11780;13.904;100.620;2024-01-25T01:27:28;101818.19;;;28.91;52.16
23223;BME280;11780;13.904;100.620;2024-01-25T01:29:59;101817.38;;;28.90;52.23
23223;BME280;11780;13.904;100.620;2024-01-25T01:32:29;101834.69;;;28.91;52.14
23223;BME280;11780;13.904;100.620;2024-01-25T01:35:00;101834.97;;;28.94;51.92
23223;BME280;11780;13.904;100.620;2024-01-25T01:37:30;101833.34;;;28.93;51.98
23223;BME280;11780;13.904;100.620;2024-01-25T01:40:00;101839.66;;;28.94;52.25
23223;BME280;11780;13.904;100.620;2024-01-25T01:42:31;101844.91;;;28.95;52.19
23223;BME280;11780;13.904;100.620;2024-01-25T01:45:03;101849.56;;;28.95;51.99
23223;BME280;11780;13.904;100.620;2024-01-25T01:47:33;101839.94;;;28.92;52.13
23223;BME280;11780;13.904;100.620;2024-01-25T01:50:05;101839.09;;;28.92;52.16
23223;BME280;11780;13.904;100.620;2024-01-25T01:52:37;101844.06;;;28.90;52.02
23223;BME280;11780;13.904;100.620;2024-01-25T01:55:08;101857.28;;;28.93;52.14
23223;BME280;11780;13.904;100.620;2024-01-25T01:57:39;101866.09;;;28.90;52.12
23223;BME280;11780;13.904;100.620;2024-01-25T02:00:11;101876.00;;;28.96;52.22
23223;BME280;11780;13.904;100.620;2024-01-25T02:02:44;101877.09;;;28.95;52.14
23223;BME280;11780;13.904;100.620;2024-01-25T02:05:14;101885.94;;;28.92;52.06
23223;BME280;11780;13.904;100.620;2024-01-25T02:07:45;101887.56;;;28.93;52.21
23223;BME280;11780;13.904;100.620;2024-01-25T02:10:16;101889.78;;;28.96;51.95
23223;BME280;11780;13.904;100.620;2024-01-25T02:12:47;101885.38;;;28.95;52.15
23223;BME280;11780;13.904;100.620;2024-01-25T02:15:17;101893.06;;;28.98;52.08
23223;BME280;11780;13.904;100.620;2024-01-25T02:17:48;101885.63;;;28.98;51.87
23223;BME280;11780;13.904;100.620;2024-01-25T02:20:18;101891.44;;;28.97;52.01
23223;BME280;11780;13.904;100.620;2024-01-25T02:22:49;101885.34;;;29.00;52.05
23223;BME280;11780;13.904;100.620;2024-01-25T02:25:19;101889.75;;;29.01;51.89
23223;BME280;11780;13.904;100.620;2024-01-25T02:27:50;101893.06;;;28.98;52.01
23223;BME280;11780;13.904;100.620;2024-01-25T02:30:22;101892.53;;;28.96;51.73
23223;BME280;11780;13.904;100.620;2024-01-25T02:32:52;101895.84;;;28.93;51.96
23223;BME280;11780;13.904;100.620;2024-01-25T02:35:23;101893.63;;;29.00;51.94
23223;BME280;11780;13.904;100.620;2024-01-25T02:37:53;101895.53;;;28.99;52.14
23223;BME280;11780;13.904;100.620;2024-01-25T02:40:24;101892.50;;;29.01;51.95
23223;BME280;11780;13.904;100.620;2024-01-25T02:42:54;101901.59;;;29.01;51.70
23223;BME280;11780;13.904;100.620;2024-01-25T02:45:26;101906.28;;;29.01;51.70
23223;BME280;11780;13.904;100.620;2024-01-25T02:47:56;101891.97;;;28.99;51.64
23223;BME280;11780;13.904;100.620;2024-01-25T02:50:27;101902.44;;;29.02;51.57
23223;BME280;11780;13.904;100.620;2024-01-25T02:52:58;101903.53;;;29.01;51.71
23223;BME280;11780;13.904;100.620;2024-01-25T02:55:28;101908.75;;;29.02;51.48
23223;BME280;11780;13.904;100.620;2024-01-25T02:57:58;101909.59;;;29.03;51.54
23223;BME280;11780;13.904;100.620;2024-01-25T03:00:29;101913.69;;;29.06;51.79
23223;BME280;11780;13.904;100.620;2024-01-25T03:02:59;101913.69;;;29.06;51.45
23223;BME280;11780;13.904;100.620;2024-01-25T03:05:30;101910.97;;;29.00;51.51
23223;BME280;11780;13.904;100.620;2024-01-25T03:08:00;101918.97;;;29.02;51.92
23223;BME280;11780;13.904;100.620;2024-01-25T03:10:31;101917.84;;;29.03;51.62
23223;BME280;11780;13.904;100.620;2024-01-25T03:13:02;101912.34;;;29.03;51.53
23223;BME280;11780;13.904;100.620;2024-01-25T03:15:32;101912.84;;;29.05;51.75
23223;BME280;11780;13.904;100.620;2024-01-25T03:18:03;101910.38;;;29.09;51.70
23223;BME280;11780;13.904;100.620;2024-01-25T03:20:34;101904.09;;;29.03;51.39
23223;BME280;11780;13.904;100.620;2024-01-25T03:23:04;101909.59;;;29.03;51.78
23223;BME280;11780;13.904;100.620;2024-01-25T03:25:34;101907.94;;;29.02;51.81
23223;BME280;11780;13.904;100.620;2024-01-25T03:28:05;101901.03;;;29.05;52.07
23223;BME280;11780;13.904;100.620;2024-01-25T03:30:36;101901.56;;;29.07;51.89
23223;BME280;11780;13.904;100.620;2024-01-25T03:33:06;101901.84;;;29.05;51.75
23223;BME280;11780;13.904;100.620;2024-01-25T03:35:37;101901.03;;;29.05;51.72
23223;BME280;11780;13.904;100.620;2024-01-25T03:38:07;101896.84;;;29.12;51.79
23223;BME280;11780;13.904;100.620;2024-01-25T03:40:37;101898.81;;;29.07;51.91
23223;BME280;11780;13.904;100.620;2024-01-25T03:43:09;101897.16;;;29.11;51.82
23223;BME280;11780;13.904;100.620;2024-01-25T03:45:49;101896.84;;;29.12;51.85
23223;BME280;11780;13.904;100.620;2024-01-25T03:48:19;101885.84;;;29.12;51.63
23223;BME280;11780;13.904;100.620;2024-01-25T03:50:51;101899.63;;;29.12;51.65
23223;BME280;11780;13.904;100.620;2024-01-25T03:53:25;101884.19;;;29.11;51.79
23223;BME280;11780;13.904;100.620;2024-01-25T03:55:56;101882.28;;;29.12;51.61
23223;BME280;11780;13.904;100.620;2024-01-25T03:58:27;101879.22;;;29.13;51.97
23223;BME280;11780;13.904;100.620;2024-01-25T04:00:57;101873.41;;;29.15;51.81
23223;BME280;11780;13.904;100.620;2024-01-25T04:03:28;101867.09;;;29.14;51.70
23223;BME280;11780;13.904;100.620;2024-01-25T04:05:59;101868.75;;;29.15;51.68
23223;BME280;11780;13.904;100.620;2024-01-25T04:08:29;101866.53;;;29.17;51.46
23223;BME280;11780;13.904;100.620;2024-01-25T04:11:00;101863.22;;;29.15;51.22
23223;BME280;11780;13.904;100.620;2024-01-25T04:13:30;101851.91;;;29.17;51.44
23223;BME280;11780;13.904;100.620;2024-01-25T04:16:00;101856.31;;;29.18;51.43
23223;BME280;11780;13.904;100.620;2024-01-25T04:18:31;101848.59;;;29.20;51.45
23223;BME280;11780;13.904;100.620;2024-01-25T04:21:01;101843.09;;;29.20;51.77
23223;BME280;11780;13.904;100.620;2024-01-25T04:23:32;101843.88;;;29.21;51.46
23223;BME280;11780;13.904;100.620;2024-01-25T04:26:02;101845.28;;;29.23;51.75
23223;BME280;11780;13.904;100.620;2024-01-25T04:28:32;101844.44;;;29.23;51.68
23223;BME280;11780;13.904;100.620;2024-01-25T04:31:03;101842.50;;;29.23;51.62
23223;BME280;11780;13.904;100.620;2024-01-25T04:33:34;101844.44;;;29.23;51.73
23223;BME280;11780;13.904;100.620;2024-01-25T04:36:04;101843.31;;;29.24;51.82
23223;BME280;11780;13.904;100.620;2024-01-25T04:38:35;101833.41;;;29.23;51.81
23223;BME280;11780;13.904;100.620;2024-01-25T04:41:05;101835.06;;;29.24;51.71
23223;BME280;11780;13.904;100.620;2024-01-25T04:43:36;101830.63;;;29.28;51.70
23223;BME280;11780;13.904;100.620;2024-01-25T04:46:07;101832.84;;;29.26;51.41
23223;BME280;11780;13.904;100.620;2024-01-25T04:48:39;101838.91;;;29.23;51.28
23223;BME280;11780;13.904;100.620;2024-01-25T04:51:18;101841.09;;;29.26;51.63
23223;BME280;11780;13.904;100.620;2024-01-25T04:53:49;101841.66;;;29.28;51.76
23223;BME280;11780;13.904;100.620;2024-01-25T04:56:20;101833.69;;;29.26;51.75
23223;BME280;11780;13.904;100.620;2024-01-25T04:58:50;101830.94;;;29.26;51.53
23223;BME280;11780;13.904;100.620;2024-01-25T05:01:21;101830.34;;;29.29;51.63
23223;BME280;11780;13.904;100.620;2024-01-25T05:03:51;101819.31;;;29.29;51.42
23223;BME280;11780;13.904;100.620;2024-01-25T05:06:22;101822.59;;;29.31;51.21
23223;BME280;11780;13.904;100.620;2024-01-25T05:08:53;101818.75;;;29.32;51.42
23223;BME280;11780;13.904;100.620;2024-01-25T05:11:23;101823.44;;;29.32;51.57
23223;BME280;11780;13.904;100.620;2024-01-25T05:13:53;101817.41;;;29.35;51.50
23223;BME280;11780;13.904;100.620;2024-01-25T05:16:23;101806.38;;;29.35;51.35
23223;BME280;11780;13.904;100.620;2024-01-25T05:18:54;101805.22;;;29.36;51.52
23223;BME280;11780;13.904;100.620;2024-01-25T05:21:25;101790.63;;;29.36;51.51
23223;BME280;11780;13.904;100.620;2024-01-25T05:23:55;101790.88;;;29.39;51.29
23223;BME280;11780;13.904;100.620;2024-01-25T05:26:26;101790.06;;;29.39;51.38
23223;BME280;11780;13.904;100.620;2024-01-25T05:28:56;101785.09;;;29.41;51.57
23223;BME280;11780;13.904;100.620;2024-01-25T05:31:26;101777.09;;;29.39;51.37
23223;BME280;11780;13.904;100.620;2024-01-25T05:33:57;101778.75;;;29.40;51.29
23223;BME280;11780;13.904;100.620;2024-01-25T05:36:28;101778.75;;;29.40;51.76
23223;BME280;11780;13.904;100.620;2024-01-25T05:38:59;101775.19;;;29.40;51.61
23223;BME280;11780;13.904;100.620;2024-01-25T05:41:29;101771.59;;;29.39;51.54
23223;BME280;11780;13.904;100.620;2024-01-25T05:44:00;101763.03;;;29.41;51.57
23223;BME280;11780;13.904;100.620;2024-01-25T05:46:30;101751.41;;;29.44;51.27
23223;BME280;11780;13.904;100.620;2024-01-25T05:49:00;101746.22;;;29.42;51.39
23223;BME280;11780;13.904;100.620;2024-01-25T05:51:31;101731.31;;;29.43;51.43
23223;BME280;11780;13.904;100.620;2024-01-25T05:54:02;101730.19;;;29.44;51.39
23223;BME280;11780;13.904;100.620;2024-01-25T05:56:32;101722.25;;;29.43;51.74
23223;BME280;11780;13.904;100.620;2024-01-25T05:59:02;101713.97;;;29.43;51.61
23223;BME280;11780;13.904;100.620;2024-01-25T06:01:33;101711.44;;;29.46;51.58
23223;BME280;11780;13.904;100.620;2024-01-25T06:04:04;101710.34;;;29.47;51.63
23223;BME280;11780;13.904;100.620;2024-01-25T06:06:34;101703.19;;;29.46;51.68
23223;BME280;11780;13.904;100.620;2024-01-25T06:09:05;101700.41;;;29.46;51.59
23223;BME280;11780;13.904;100.620;2024-01-25T06:11:40;101697.09;;;29.50;51.63
23223;BME280;11780;13.904;100.620;2024-01-25T06:14:11;101685.53;;;29.47;51.80
23223;BME280;11780;13.904;100.620;2024-01-25T06:16:41;101676.69;;;29.51;51.87
23223;BME280;11780;13.904;100.620;2024-01-25T06:19:12;101673.63;;;29.52;51.74
23223;BME280;11780;13.904;100.620;2024-01-25T06:21:43;101662.59;;;29.52;51.99
23223;BME280;11780;13.904;100.620;2024-01-25T06:24:13;101643.28;;;29.52;51.80
23223;BME280;11780;13.904;100.620;2024-01-25T06:26:44;101648.50;;;29.54;51.74
23223;BME280;11780;13.904;100.620;2024-01-25T06:29:14;101648.50;;;29.54;51.60
23223;BME280;11780;13.904;100.620;2024-01-25T06:31:45;101644.09;;;29.53;51.97
23223;BME280;11780;13.904;100.620;2024-01-25T06:34:15;101646.59;;;29.54;51.68
23223;BME280;11780;13.904;100.620;2024-01-25T06:36:46;101638.59;;;29.53;51.82
23223;BME280;11780;13.904;100.620;2024-01-25T06:39:17;101639.13;;;29.55;51.87
23223;BME280;11780;13.904;100.620;2024-01-25T06:41:47;101632.50;;;29.56;51.75
23223;BME280;11780;13.904;100.620;2024-01-25T06:44:17;101623.13;;;29.57;52.03
23223;BME280;11780;13.904;100.620;2024-01-25T06:46:48;101615.38;;;29.59;51.19
23223;BME280;11780;13.904;100.620;2024-01-25T06:49:18;101619.47;;;29.61;51.19
23223;BME280;11780;13.904;100.620;2024-01-25T06:51:48;101608.22;;;29.58;51.19
23223;BME280;11780;13.904;100.620;2024-01-25T06:54:19;101610.66;;;29.59;51.32
23223;BME280;11780;13.904;100.620;2024-01-25T06:56:50;101611.19;;;29.61;51.28
23223;BME280;11780;13.904;100.620;2024-01-25T06:59:21;101607.91;;;29.59;51.85
23223;BME280;11780;13.904;100.620;2024-01-25T07:01:52;101603.22;;;29.60;51.80
23223;BME280;11780;13.904;100.620;2024-01-25T07:04:23;101588.59;;;29.59;51.72
23223;BME280;11780;13.904;100.620;2024-01-25T07:06:54;101583.94;;;29.60;51.87
23223;BME280;11780;13.904;100.620;2024-01-25T07:09:25;101580.88;;;29.61;51.63
23223;BME280;11780;13.904;100.620;2024-01-25T07:11:55;101588.34;;;29.61;51.69
23223;BME280;11780;13.904;100.620;2024-01-25T07:14:26;101570.16;;;29.60;52.08
23223;BME280;11780;13.904;100.620;2024-01-25T07:16:56;101571.78;;;29.61;51.72
23223;BME280;11780;13.904;100.620;2024-01-25T07:19:26;101562.41;;;29.62;51.62
23223;BME280;11780;13.904;100.620;2024-01-25T07:21:57;101564.06;;;29.63;51.42
23223;BME280;11780;13.904;100.620;2024-01-25T07:24:27;101559.88;;;29.66;51.54
23223;BME280;11780;13.904;100.620;2024-01-25T07:26:58;101560.97;;;29.65;51.23
23223;BME280;11780;13.904;100.620;2024-01-25T07:29:28;101553.03;;;29.63;51.58
23223;BME280;11780;13.904;100.620;2024-01-25T07:31:58;101545.03;;;29.61;51.60
23223;BME280;11780;13.904;100.620;2024-01-25T07:34:29;101544.22;;;29.61;51.55
23223;BME280;11780;13.904;100.620;2024-01-25T07:36:59;101536.47;;;29.63;51.78
23223;BME280;11780;13.904;100.620;2024-01-25T07:39:30;101533.72;;;29.63;51.88
23223;BME280;11780;13.904;100.620;2024-01-25T07:42:00;101536.16;;;29.65;51.83
23223;BME280;11780;13.904;100.620;2024-01-25T07:44:31;101526.47;;;29.67;51.53
23223;BME280;11780;13.904;100.620;2024-01-25T07:47:01;101527.63;;;29.66;51.95
23223;BME280;11780;13.904;100.620;2024-01-25T07:49:32;101517.72;;;29.65;52.09
23223;BME280;11780;13.904;100.620;2024-01-25T07:52:02;101520.16;;;29.67;51.94
23223;BME280;11780;13.904;100.620;2024-01-25T07:54:33;101519.34;;;29.66;52.25
23223;BME280;11780;13.904;100.620;2024-01-25T07:57:04;101524.03;;;29.66;52.22
23223;BME280;11780;13.904;100.620;2024-01-25T07:59:37;101522.38;;;29.65;52.32
23223;BME280;11780;13.904;100.620;2024-01-25T08:02:08;101517.72;;;29.65;52.44
23223;BME280;11780;13.904;100.620;2024-01-25T08:04:39;101516.59;;;29.66;52.42
23223;BME280;11780;13.904;100.620;2024-01-25T08:07:09;101515.44;;;29.67;52.34
23223;BME280;11780;13.904;100.620;2024-01-25T08:09:40;101511.06;;;29.66;52.46
23223;BME280;11780;13.904;100.620;2024-01-25T08:12:11;101514.63;;;29.67;52.30
23223;BME280;11780;13.904;100.620;2024-01-25T08:14:41;101520.97;;;29.67;52.29
23223;BME280;11780;13.904;100.620;2024-01-25T08:17:13;101521.78;;;29.68;52.44
23223;BME280;11780;13.904;100.620;2024-01-25T08:19:44;101512.09;;;29.70;52.19
23223;BME280;11780;13.904;100.620;2024-01-25T08:22:19;101502.50;;;29.68;52.41
23223;BME280;11780;13.904;100.620;2024-01-25T08:24:50;101506.59;;;29.70;52.11
23223;BME280;11780;13.904;100.620;2024-01-25T08:27:20;101499.44;;;29.69;52.57
23223;BME280;11780;13.904;100.620;2024-01-25T08:29:51;101496.66;;;29.69;52.46
23223;BME280;11780;13.904;100.620;2024-01-25T08:32:21;101503.31;;;29.68;52.77
23223;BME280;11780;13.904;100.620;2024-01-25T08:34:51;101501.38;;;29.69;52.72
23223;BME280;11780;13.904;100.620;2024-01-25T08:37:23;101504.41;;;29.67;52.45
23223;BME280;11780;13.904;100.620;2024-01-25T08:39:54;101503.31;;;29.68;52.61
23223;BME280;11780;13.904;100.620;2024-01-25T08:42:26;101501.66;;;29.67;52.54
23223;BME280;11780;13.904;100.620;2024-01-25T08:44:56;101503.59;;;29.67;52.58
23223;BME280;11780;13.904;100.620;2024-01-25T08:47:26;101510.25;;;29.66;52.96
23223;BME280;11780;13.904;100.620;2024-01-25T08:49:57;101511.06;;;29.66;52.55
23223;BME280;11780;13.904;100.620;2024-01-25T08:52:28;101510.53;;;29.64;52.62
23223;BME280;11780;13.904;100.620;2024-01-25T08:55:09;101525.66;;;29.67;52.65
23223;BME280;11780;13.904;100.620;2024-01-25T08:57:42;101514.41;;;29.63;52.65
23223;BME280;11780;13.904;100.620;2024-01-25T09:00:12;101518.50;;;29.66;52.93
23223;BME280;11780;13.904;100.620;2024-01-25T09:02:43;101522.38;;;29.65;52.61
23223;BME280;11780;13.904;100.620;2024-01-25T09:05:25;101524.34;;;29.64;52.66
23223;BME280;11780;13.904;100.620;2024-01-25T09:07:58;101523.22;;;29.65;52.83
23223;BME280;11780;13.904;100.620;2024-01-25T09:10:32;101530.66;;;29.65;52.83
23223;BME280;11780;13.904;100.620;2024-01-25T09:13:03;101531.25;;;29.61;52.47
23223;BME280;11780;13.904;100.620;2024-01-25T09:15:34;101536.16;;;29.65;52.57
23223;BME280;11780;13.904;100.620;2024-01-25T09:18:04;101532.59;;;29.64;52.63
23223;BME280;11780;13.904;100.620;2024-01-25T09:20:35;101540.88;;;29.64;52.46
23223;BME280;11780;13.904;100.620;2024-01-25T09:23:05;101539.50;;;29.61;52.44
23223;BME280;11780;13.904;100.620;2024-01-25T09:25:35;101543.91;;;29.62;52.30
23223;BME280;11780;13.904;100.620;2024-01-25T09:28:06;101548.09;;;29.60;52.20
23223;BME280;11780;13.904;100.620;2024-01-25T09:30:36;101546.66;;;29.62;51.69
23223;BME280;11780;13.904;100.620;2024-01-25T09:33:07;101548.41;;;29.58;51.59
23223;BME280;11780;13.904;100.620;2024-01-25T09:35:38;101551.16;;;29.58;51.80
23223;BME280;11780;13.904;100.620;2024-01-25T09:38:09;101561.34;;;29.58;52.09
23223;BME280;11780;13.904;100.620;2024-01-25T09:40:39;101563.00;;;29.59;52.07
23223;BME280;11780;13.904;100.620;2024-01-25T09:43:11;101561.34;;;29.58;51.77
23223;BME280;11780;13.904;100.620;2024-01-25T09:45:43;101559.69;;;29.57;51.97
23223;BME280;11780;13.904;100.620;2024-01-25T09:48:14;101572.38;;;29.58;51.69
23223;BME280;11780;13.904;100.620;2024-01-25T09:50:47;101575.13;;;29.58;51.78
23223;BME280;11780;13.904;100.620;2024-01-25T09:53:22;101579.00;;;29.57;51.58
23223;BME280;11780;13.904;100.620;2024-01-25T09:56:09;101584.81;;;29.55;51.63
23223;BME280;11780;13.904;100.620;2024-01-25T09:58:42;101585.63;;;29.56;51.56
23223;BME280;11780;13.904;100.620;2024-01-25T10:01:14;101582.88;;;29.56;51.64
23223;BME280;11780;13.904;100.620;2024-01-25T10:03:48;101585.63;;;29.56;51.27
23223;BME280;11780;13.904;100.620;2024-01-25T10:06:18;101586.22;;;29.53;51.26
23223;BME280;11780;13.904;100.620;2024-01-25T10:08:52;101586.22;;;29.53;51.34
23223;BME280;11780;13.904;100.620;2024-01-25T10:11:23;101584.56;;;29.52;50.90
23223;BME280;11780;13.904;100.620;2024-01-25T10:13:54;101583.75;;;29.51;51.27
23223;BME280;11780;13.904;100.620;2024-01-25T10:16:26;101579.06;;;29.52;51.41
23223;BME280;11780;13.904;100.620;2024-01-25T10:18:57;101586.50;;;29.51;51.32
23223;BME280;11780;13.904;100.620;2024-01-25T10:21:29;101581.53;;;29.53;51.07
23223;BME280;11780;13.904;100.620;2024-01-25T10:23:59;101580.69;;;29.53;51.32
23223;BME280;11780;13.904;100.620;2024-01-25T10:26:30;101583.75;;;29.51;51.19
23223;BME280;11780;13.904;100.620;2024-01-25T10:29:02;101572.72;;;29.51;51.37
23223;BME280;11780;13.904;100.620;2024-01-25T10:31:38;101576.28;;;29.52;51.15
23223;BME280;11780;13.904;100.620;2024-01-25T10:34:13;101588.97;;;29.53;50.82
23223;BME280;11780;13.904;100.620;2024-01-25T10:36:44;101580.69;;;29.53;50.81
23223;BME280;11780;13.904;100.620;2024-01-25T10:39:16;101579.06;;;29.52;51.04
23223;BME280;11780;13.904;100.620;2024-01-25T10:41:48;101588.97;;;29.53;51.05
23223;BME280;11780;13.904;100.620;2024-01-25T10:44:20;101597.22;;;29.53;51.04
23223;BME280;11780;13.904;100.620;2024-01-25T10:46:51;101599.19;;;29.52;50.66
23223;BME280;11780;13.904;100.620;2024-01-25T10:49:21;101593.44;;;29.49;50.09
23223;BME280;11780;13.904;100.620;2024-01-25T10:51:52;101597.00;;;29.49;50.65
23223;BME280;11780;13.904;100.620;2024-01-25T10:54:23;101592.91;;;29.46;50.74
23223;BME280;11780;13.904;100.620;2024-01-25T10:56:54;101588.50;;;29.45;50.64
23223;BME280;11780;13.904;100.620;2024-01-25T10:59:24;101590.22;;;29.41;50.11
23223;BME280;11780;13.904;100.620;2024-01-25T11:01:57;101595.94;;;29.45;50.41
23223;BME280;11780;13.904;100.620;2024-01-25T11:04:29;101596.25;;;29.43;50.45
23223;BME280;11780;13.904;100.620;2024-01-25T11:07:08;101597.59;;;29.46;50.17
23223;BME280;11780;13.904;100.620;2024-01-25T11:09:40;101602.06;;;29.42;50.18
23223;BME280;11780;13.904;100.620;2024-01-25T11:12:13;101607.84;;;29.40;50.30
23223;BME280;11780;13.904;100.620;2024-01-25T11:14:44;101602.88;;;29.42;50.24
23223;BME280;11780;13.904;100.620;2024-01-25T11:17:18;101609.44;;;29.46;49.99
23223;BME280;11780;13.904;100.620;2024-01-25T11:19:50;101615.00;;;29.41;49.73
23223;BME280;11780;13.904;100.620;2024-01-25T11:22:20;101611.97;;;29.43;50.03
23223;BME280;11780;13.904;100.620;2024-01-25T11:24:51;101613.59;;;29.44;49.66
23223;BME280;11780;13.904;100.620;2024-01-25T11:27:21;101612.78;;;29.43;49.63
23223;BME280;11780;13.904;100.620;2024-01-25T11:29:52;101616.97;;;29.41;49.74
23223;BME280;11780;13.904;100.620;2024-01-25T11:32:22;101611.16;;;29.42;49.85
23223;BME280;11780;13.904;100.620;2024-01-25T11:35:00;101611.97;;;29.43;49.48
23223;BME280;11780;13.904;100.620;2024-01-25T11:37:30;101619.41;;;29.42;49.60
23223;BME280;11780;13.904;100.620;2024-01-25T11:40:01;101617.53;;;29.38;49.62
23223;BME280;11780;13.904;100.620;2024-01-25T11:42:31;101617.00;;;29.36;49.72
23223;BME280;11780;13.904;100.620;2024-01-25T11:45:04;101620.00;;;29.39;49.56
23223;BME280;11780;13.904;100.620;2024-01-25T11:47:35;101623.34;;;29.36;49.98
23223;BME280;11780;13.904;100.620;2024-01-25T11:50:06;101631.03;;;29.39;49.96
23223;BME280;11780;13.904;100.620;2024-01-25T11:52:37;101640.41;;;29.38;49.99
23223;BME280;11780;13.904;100.620;2024-01-25T11:55:08;101641.50;;;29.37;49.90
23223;BME280;11780;13.904;100.620;2024-01-25T11:57:42;101650.63;;;29.38;49.92
23223;BME280;11780;13.904;100.620;2024-01-25T12:00:16;101645.91;;;29.38;49.81
23223;BME280;11780;13.904;100.620;2024-01-25T12:02:47;101652.84;;;29.36;50.01
23223;BME280;11780;13.904;100.620;2024-01-25T12:05:18;101659.16;;;29.36;49.93
23223;BME280;11780;13.904;100.620;2024-01-25T12:07:50;101648.72;;;29.33;49.92
23223;BME280;11780;13.904;100.620;2024-01-25T12:10:20;101656.94;;;29.38;49.62
23223;BME280;11780;13.904;100.620;2024-01-25T12:12:53;101668.78;;;29.39;49.71
23223;BME280;11780;13.904;100.620;2024-01-25T12:15:23;101659.69;;;29.38;49.97
23223;BME280;11780;13.904;100.620;2024-01-25T12:17:54;101664.66;;;29.36;49.83
23223;BME280;11780;13.904;100.620;2024-01-25T12:20:24;101666.31;;;29.37;49.40
23223;BME280;11780;13.904;100.620;2024-01-25T12:22:58;101672.13;;;29.36;49.70
23223;BME280;11780;13.904;100.620;2024-01-25T12:25:28;101668.00;;;29.33;49.92
23223;BME280;11780;13.904;100.620;2024-01-25T12:27:59;101679.59;;;29.35;50.06
23223;BME280;11780;13.904;100.620;2024-01-25T12:30:32;101682.88;;;29.32;49.66
23223;BME280;11780;13.904;100.620;2024-01-25T12:33:03;101685.66;;;29.32;49.67
23223;BME280;11780;13.904;100.620;2024-01-25T12:35:34;101684.00;;;29.31;49.89
23223;BME280;11780;13.904;100.620;2024-01-25T12:38:05;101688.09;;;29.33;49.40
23223;BME280;11780;13.904;100.620;2024-01-25T12:40:35;101696.66;;;29.32;49.76
23223;BME280;11780;13.904;100.620;2024-01-25T12:43:07;101695.59;;;29.28;49.64
23223;BME280;11780;13.904;100.620;2024-01-25T12:45:38;101700.53;;;29.31;49.81
23223;BME280;11780;13.904;100.620;2024-01-25T12:48:09;101703.28;;;29.31;49.60
23223;BME280;11780;13.904;100.620;2024-01-25T12:50:40;101712.13;;;29.28;49.94